Pagrindinis puslapis
METAR-TAF:

METAR-TAF

Oro uostai :

Dijarbakyras, Turkija

platuma: 37-53N, ilguma: 040-11E, Aukštis: 686 m

Dabartinis oras

Ataskaita buvo paskelbta 23 minutes, ne 09:20 UTC
Vėjas 5 kt nuo kintamojo kryptimis
Temperatūra 32°C
Drėgmė 18%
Slėgis 1012 hPa
Matomumas 10 km arba daugiau
nėra debesų žemiau 1500 m ir nėra kamuolinių lietaus debesų

METAR: LTCC 210920Z VRB05KT CAVOK 32/05 Q1012 NOSIG RMK RWY16 VRB05KT

Laikas: 12:43 (09:43 UTC)

Prognozė

Ataskaita buvo paskelbta 5 valandos ir 3 minutes, ne 04:40 UTC
Prognozė galioja nuo 21 metu 06 UTC su 22 metu 06 UTC
Vėjas 2 kt nuo kintamojo kryptimis
Matomumas 10 km arba daugiau
nėra debesų žemiau 1500 m ir nėra kamuolinių lietaus debesų
Tapsmas
nuo 21 metu 09 UTC su 21 metu 11 UTC
Vėjas 13 kt iš Pietų/Pietvakarių
Tapsmas
nuo 21 metu 15 UTC su 21 metu 18 UTC
Vėjas 2 kt nuo kintamojo kryptimis

TAF: LTCC 210440Z 2106/2206 VRB02KT CAVOK BECMG 2109/2111 20013KT BECMG 2115/2118 VRB02KT

Orai ataskaitas ir orų prognozės (METAR, TAF).

turimą stotys yra geltonos ir raudonos taškus žemėlapyje.

Perkelti pele per norėdami pamatyti stoties vardą.

Tada spustelėkite, norėdami matyti oro stebėjimo ir prognozės.

Norėdami pakeisti žemėlapį: spustelėkite ant žalios mygtukų su juodo kryžiaus žemyn,; žalią mygtuką su brūkšneliu, jei norite nutolinti; arba žalių rodyklių gretimoms žemėlapius.


METAR-TAF: